createdAt,value
2019-03-18T00:04:01.955Z,8.80
2019-03-18T00:08:56.750Z,8.80
2019-03-18T00:13:52.458Z,8.70
2019-03-18T00:18:52.996Z,8.60
2019-03-18T00:23:49.813Z,8.40
2019-03-18T00:28:43.787Z,8.30
2019-03-18T00:33:37.988Z,8.20
2019-03-18T00:38:35.466Z,8.20
2019-03-18T00:43:32.612Z,8.10
2019-03-18T00:48:28.587Z,8.10
2019-03-18T00:53:23.233Z,8.20
2019-03-18T00:58:19.893Z,8.20
2019-03-18T01:03:18.728Z,8.10
2019-03-18T01:08:13.801Z,8.10
2019-03-18T01:13:08.772Z,8.10
2019-03-18T01:18:05.438Z,8.30
2019-03-18T01:22:59.607Z,8.20
2019-03-18T01:27:53.590Z,8.20
2019-03-18T01:32:50.466Z,8.20
2019-03-18T01:37:44.764Z,8.20
2019-03-18T01:42:38.968Z,8.30
2019-03-18T01:47:33.295Z,8.30
2019-03-18T01:52:29.349Z,8.20
2019-03-18T01:57:23.849Z,8.10
2019-03-18T02:02:22.143Z,8.10
2019-03-18T02:07:16.675Z,8.10
2019-03-18T02:12:14.333Z,8.30
2019-03-18T02:17:09.745Z,8.20
2019-03-18T02:22:06.386Z,8.10
2019-03-18T02:27:01.911Z,8.00
2019-03-18T02:31:56.309Z,8.00
2019-03-18T02:36:52.092Z,8.10
2019-03-18T02:41:46.232Z,8.00
2019-03-18T02:46:40.634Z,8.00
2019-03-18T02:51:36.634Z,7.80
2019-03-18T02:56:31.035Z,7.60
2019-03-18T03:01:26.119Z,7.50
2019-03-18T03:06:21.247Z,7.40
2019-03-18T03:11:15.922Z,7.40
2019-03-18T03:16:25.492Z,7.40
2019-03-18T03:21:09.145Z,7.50
2019-03-18T03:26:06.700Z,7.60
2019-03-18T03:31:05.818Z,7.60
2019-03-18T03:36:00.324Z,7.60
2019-03-18T03:40:55.861Z,7.60
2019-03-18T03:45:50.338Z,7.60
2019-03-18T03:50:44.632Z,7.50
2019-03-18T03:55:39.157Z,7.40
2019-03-18T04:00:38.632Z,7.40
2019-03-18T04:05:33.835Z,7.40
2019-03-18T04:10:31.481Z,7.20
2019-03-18T04:15:25.990Z,7.10
2019-03-18T04:20:20.386Z,7.00
2019-03-18T04:25:15.011Z,6.70
2019-03-18T04:30:12.370Z,6.60
2019-03-18T04:35:07.281Z,6.50
2019-03-18T04:40:02.662Z,6.40
2019-03-18T04:45:00.172Z,6.20
2019-03-18T04:49:59.079Z,6.10
2019-03-18T04:54:53.566Z,6.00
2019-03-18T04:59:49.307Z,5.80
2019-03-18T05:04:46.075Z,5.80
2019-03-18T05:09:43.726Z,5.80
2019-03-18T05:14:44.655Z,5.70
2019-03-18T05:19:39.505Z,5.70
2019-03-18T05:24:36.190Z,5.60
2019-03-18T05:29:30.557Z,5.60
2019-03-18T05:34:25.547Z,5.60
2019-03-18T05:39:23.317Z,5.70
2019-03-18T05:44:18.750Z,5.70
2019-03-18T05:49:16.108Z,5.90
2019-03-18T05:54:10.690Z,6.00
2019-03-18T05:59:09.691Z,6.10
2019-03-18T06:04:06.997Z,6.20
2019-03-18T06:09:06.399Z,6.40
2019-03-18T06:14:02.699Z,6.60
2019-03-18T06:19:00.204Z,7.40
2019-03-18T06:23:55.316Z,7.80
2019-03-18T06:28:50.083Z,7.80
2019-03-18T06:33:44.632Z,8.00
2019-03-18T06:38:42.890Z,8.50
2019-03-18T06:43:39.770Z,9.30
2019-03-18T06:48:40.741Z,9.70
2019-03-18T06:53:35.042Z,10.20
2019-03-18T06:58:33.263Z,10.80
2019-03-18T07:03:29.714Z,10.60
2019-03-18T07:08:26.696Z,10.20
2019-03-18T07:13:25.100Z,10.60
2019-03-18T07:18:25.076Z,11.30
2019-03-18T07:23:19.678Z,13.80
2019-03-18T07:28:18.054Z,15.70
2019-03-18T07:33:12.296Z,16.00
2019-03-18T07:38:08.503Z,16.80
2019-03-18T07:43:07.550Z,17.40
2019-03-18T07:48:06.656Z,17.60
2019-03-18T07:53:03.656Z,17.70
2019-03-18T07:58:00.027Z,20.60
2019-03-18T08:02:56.302Z,23.90
2019-03-18T08:07:53.979Z,27.20
2019-03-18T08:12:49.895Z,28.70
2019-03-18T08:17:44.743Z,29.60
2019-03-18T08:22:40.557Z,30.70
2019-03-18T08:27:38.348Z,31.60
2019-03-18T08:32:33.366Z,31.70
2019-03-18T08:37:30.092Z,32.20
2019-03-18T08:42:26.087Z,33.90
2019-03-18T08:47:20.549Z,34.30
2019-03-18T08:52:16.226Z,33.10
2019-03-18T08:57:13.629Z,31.50
2019-03-18T09:02:09.423Z,29.40
2019-03-18T09:07:05.057Z,25.80
2019-03-18T09:12:01.744Z,22.00
2019-03-18T09:16:56.673Z,19.80
2019-03-18T09:21:50.959Z,19.40
2019-03-18T09:26:46.633Z,19.70
2019-03-18T09:31:41.672Z,18.80
2019-03-18T09:36:38.081Z,17.70
2019-03-18T09:41:32.574Z,16.10
2019-03-18T09:46:28.889Z,14.80
2019-03-18T09:51:23.786Z,14.00
2019-03-18T09:56:18.997Z,13.80
2019-03-18T10:01:13.281Z,13.60
2019-03-18T10:06:09.058Z,13.50
2019-03-18T10:11:06.827Z,12.90
2019-03-18T10:16:08.285Z,12.90
2019-03-18T10:21:05.641Z,13.00
2019-03-18T10:26:00.111Z,12.90
2019-03-18T10:30:56.381Z,12.90
2019-03-18T10:35:54.150Z,13.10
2019-03-18T10:40:50.609Z,13.50
2019-03-18T10:45:46.852Z,13.80
2019-03-18T10:50:44.012Z,14.70
2019-03-18T10:55:41.094Z,15.30
2019-03-18T11:00:38.356Z,16.70
2019-03-18T11:05:39.550Z,17.60
2019-03-18T11:10:37.093Z,16.60
2019-03-18T11:15:36.977Z,15.40
2019-03-18T11:20:34.210Z,14.40
2019-03-18T11:25:34.816Z,14.00
2019-03-18T11:30:31.009Z,13.60
2019-03-18T11:35:32.070Z,13.20
2019-03-18T11:40:30.887Z,13.30
2019-03-18T11:45:30.629Z,17.90
2019-03-18T11:50:27.439Z,17.20
2019-03-18T11:55:30.230Z,15.40
2019-03-18T12:00:27.300Z,14.80
2019-03-18T12:05:23.492Z,15.10
2019-03-18T12:10:20.459Z,14.40
2019-03-18T12:15:21.390Z,13.80
2019-03-18T12:20:24.434Z,13.50
2019-03-18T12:25:15.648Z,13.40
2019-03-18T12:30:26.798Z,13.20
2019-03-18T12:35:21.292Z,13.20
2019-03-18T12:40:18.099Z,13.30
2019-03-18T12:45:19.948Z,13.60
2019-03-18T12:50:31.129Z,13.50
2019-03-18T12:55:15.155Z,13.30
2019-03-18T13:00:16.155Z,13.00
2019-03-18T13:05:13.287Z,13.10
2019-03-18T13:10:16.771Z,13.10
2019-03-18T13:15:19.663Z,13.10
2019-03-18T13:20:16.113Z,13.20
2019-03-18T13:25:13.211Z,13.00
2019-03-18T13:30:10.632Z,12.20
2019-03-18T13:35:09.332Z,11.40
2019-03-18T13:40:03.964Z,10.80
2019-03-18T13:44:59.621Z,10.30
2019-03-18T13:49:55.175Z,9.40
2019-03-18T13:54:51.615Z,9.10
2019-03-18T13:59:46.807Z,9.40
2019-03-18T14:04:42.740Z,9.50
2019-03-18T14:09:40.385Z,9.60
2019-03-18T14:14:35.177Z,9.60
2019-03-18T14:19:30.286Z,9.90
2019-03-18T14:24:25.497Z,10.20
2019-03-18T14:34:21.291Z,10.60
2019-03-18T14:39:16.358Z,10.40
2019-03-18T14:44:14.031Z,10.60
2019-03-18T14:49:10.997Z,10.70
2019-03-18T14:54:06.710Z,10.60
2019-03-18T14:59:07.804Z,10.40
2019-03-18T15:04:05.285Z,10.30
2019-03-18T15:09:03.350Z,10.10
2019-03-18T15:13:59.685Z,9.80
2019-03-18T15:18:55.653Z,9.50
2019-03-18T15:23:54.839Z,9.40
2019-03-18T15:28:52.104Z,9.40
2019-03-18T15:33:50.014Z,9.80
2019-03-18T15:39:08.440Z,9.90
2019-03-18T15:44:03.427Z,9.90
2019-03-18T15:49:03.661Z,9.90
2019-03-18T15:54:01.810Z,9.80
2019-03-18T15:58:56.471Z,9.60
2019-03-18T16:03:56.275Z,9.50
2019-03-18T16:08:50.503Z,9.40
2019-03-18T16:13:47.245Z,9.30
2019-03-18T16:18:41.579Z,9.30
2019-03-18T16:23:36.246Z,9.30
2019-03-18T16:28:32.617Z,9.30
2019-03-18T16:33:29.481Z,9.40
2019-03-18T16:38:26.616Z,9.50
2019-03-18T16:43:23.398Z,9.30
2019-03-18T16:48:25.701Z,9.10
2019-03-18T16:53:21.643Z,9.10
2019-03-18T16:58:20.274Z,9.00
2019-03-18T17:03:17.337Z,8.90
2019-03-18T17:08:15.909Z,8.70
2019-03-18T17:13:10.863Z,8.40
2019-03-18T17:18:08.824Z,8.20
2019-03-18T17:23:05.294Z,8.00
2019-03-18T17:28:03.641Z,7.70
2019-03-18T17:33:00.888Z,7.60
2019-03-18T17:37:56.626Z,7.50
2019-03-18T17:42:59.496Z,7.30
2019-03-18T17:47:57.686Z,7.30
2019-03-18T17:53:02.213Z,7.30
2019-03-18T17:57:50.849Z,7.40
2019-03-18T18:02:48.547Z,7.30
2019-03-18T18:07:44.632Z,7.30
2019-03-18T18:12:46.247Z,7.20
2019-03-18T18:17:47.571Z,7.00
2019-03-18T18:22:44.455Z,6.90
2019-03-18T18:27:38.601Z,6.80
2019-03-18T18:32:34.106Z,6.70
2019-03-18T18:37:29.753Z,6.70
2019-03-18T18:42:25.750Z,6.60
2019-03-18T18:47:22.319Z,6.50
2019-03-18T18:52:18.325Z,6.40
2019-03-18T18:57:12.806Z,6.30
2019-03-18T19:02:07.752Z,6.10
2019-03-18T19:07:05.384Z,6.00
2019-03-18T19:12:01.086Z,6.10
2019-03-18T19:16:57.614Z,6.30
2019-03-18T19:21:53.164Z,6.50
2019-03-18T19:26:52.977Z,6.50
2019-03-18T19:31:49.937Z,6.80
2019-03-18T19:36:47.001Z,6.80
2019-03-18T19:41:43.736Z,6.90
2019-03-18T19:46:40.155Z,7.00
2019-03-18T19:51:42.821Z,7.10
2019-03-18T19:56:41.299Z,7.10
2019-03-18T20:01:35.586Z,7.10
2019-03-18T20:06:31.852Z,6.90
2019-03-18T20:11:31.585Z,7.10
2019-03-18T20:16:26.075Z,6.90
2019-03-18T20:21:31.019Z,6.70
2019-03-18T20:26:34.667Z,6.50
2019-03-18T20:31:29.733Z,6.30
2019-03-18T20:36:27.985Z,6.10
2019-03-18T20:41:25.545Z,5.90
2019-03-18T20:46:20.576Z,5.90
2019-03-18T20:51:17.142Z,5.80
2019-03-18T20:56:11.702Z,5.70
2019-03-18T21:01:10.516Z,5.70
2019-03-18T21:06:08.202Z,5.70
2019-03-18T21:11:10.274Z,5.90
2019-03-18T21:16:10.995Z,6.00
2019-03-18T21:21:08.114Z,6.10
2019-03-18T21:26:09.584Z,6.20
2019-03-18T21:31:05.966Z,6.20
2019-03-18T21:36:36.835Z,6.30
2019-03-18T21:41:22.696Z,6.50
2019-03-18T21:46:19.033Z,6.40
2019-03-18T21:51:14.887Z,6.30
2019-03-18T21:56:27.183Z,6.20
2019-03-18T22:01:36.759Z,6.20
2019-03-18T22:06:37.559Z,6.30
2019-03-18T22:11:46.174Z,6.30
2019-03-18T22:16:50.334Z,6.40
2019-03-18T22:22:07.194Z,6.50
2019-03-18T22:27:09.033Z,6.50
2019-03-18T22:32:13.575Z,6.30
2019-03-18T22:37:15.365Z,6.10
2019-03-18T22:42:13.060Z,5.80
2019-03-18T22:47:08.473Z,5.60
2019-03-18T22:52:03.162Z,5.60
2019-03-18T22:56:58.326Z,5.60
2019-03-18T23:01:54.266Z,5.70
2019-03-18T23:06:49.256Z,5.90
2019-03-18T23:11:46.844Z,6.00
2019-03-18T23:16:45.925Z,6.10
2019-03-18T23:21:41.622Z,6.10
2019-03-18T23:26:36.628Z,6.20
2019-03-18T23:31:35.874Z,6.10
2019-03-18T23:36:31.215Z,6.00
2019-03-18T23:41:25.412Z,5.90
2019-03-18T23:46:23.005Z,5.90
2019-03-18T23:51:21.486Z,5.70
2019-03-18T23:56:15.966Z,5.70
